Time;durP1;ratioP1;P1;durP2;ratioP2;P2;SDS_P1;SDS_P2;PMS_P1;PMS_P2;Temp;Humidity;BMP_temperature;BMP_pressure;BME280_temperature;BME280_humidity;BME280_pressure;Samples;Min_cycle;Max_cycle;Signal;HPM_P1;HPM_P2
2021/03/26 00:00:21;;;;;;;41.87;24.57;;;;;;;;;;5116089;27;20454;-71
2021/03/26 00:02:48;;;;;;;37.60;23.50;;;;;;;;;;5114575;27;20910;-71
2021/03/26 00:05:19;;;;;;;35.77;23.20;;;;;;;;;;5115552;27;20742;-71
2021/03/26 00:07:46;;;;;;;38.20;22.10;;;;;;;;;;5114162;27;20439;-71
2021/03/26 00:10:19;;;;;;;39.67;24.47;;;;;;;;;;5115403;27;20451;-71
2021/03/26 00:12:46;;;;;;;47.50;25.00;;;;;;;;;;5114947;27;20451;-71
2021/03/26 00:15:17;;;;;;;37.57;24.00;;;;;;;;;;5116474;27;20529;-72
2021/03/26 00:17:52;;;;;;;43.73;23.30;;;;;;;;;;5116455;27;20457;-71
2021/03/26 00:20:21;;;;;;;41.47;23.67;;;;;;;;;;5115743;27;20698;-71
2021/03/26 00:22:49;;;;;;;37.27;22.80;;;;;;;;;;5116214;27;20474;-71
2021/03/26 00:25:17;;;;;;;39.60;23.20;;;;;;;;;;5116090;27;20466;-72
2021/03/26 00:27:44;;;;;;;40.03;24.87;;;;;;;;;;5116911;27;20889;-71
2021/03/26 00:30:20;;;;;;;45.30;24.73;;;;;;;;;;5116422;27;20464;-71
2021/03/26 00:32:50;;;;;;;45.93;24.23;;;;;;;;;;5116358;27;20462;-72
2021/03/26 00:35:25;;;;;;;39.40;22.73;;;;;;;;;;5136600;27;20536;-71
2021/03/26 00:37:54;;;;;;;43.93;24.43;;;;;;;;;;5137222;27;20442;-71
2021/03/26 00:40:21;;;;;;;36.17;23.20;;;;;;;;;;5136610;27;20942;-71
2021/03/26 00:43:02;;;;;;;40.33;23.80;;;;;;;;;;5128989;27;20453;-71
2021/03/26 00:45:31;;;;;;;42.97;24.43;;;;;;;;;;5099226;27;20463;-71
2021/03/26 00:47:59;;;;;;;36.03;19.63;;;;;;;;;;5108791;27;20829;-71
2021/03/26 00:50:29;;;;;;;40.90;22.83;;;;;;;;;;5121320;27;20458;-72
2021/03/26 00:53:02;;;;;;;39.70;23.57;;;;;;;;;;5119283;27;20865;-72
2021/03/26 00:55:31;;;;;;;40.83;22.67;;;;;;;;;;5119555;27;20484;-72
2021/03/26 01:00:49;;;;;;;41.07;24.17;;;;;;;;;;5110338;27;20464;-71
2021/03/26 01:03:18;;;;;;;42.70;25.67;;;;;;;;;;5119686;27;20484;-71
2021/03/26 01:05:47;;;;;;;40.77;23.77;;;;;;;;;;5121681;27;20469;-71
2021/03/26 01:08:14;;;;;;;39.93;23.50;;;;;;;;;;5139710;27;20445;-71
2021/03/26 01:10:44;;;;;;;39.20;22.50;;;;;;;;;;5140020;27;20454;-71
2021/03/26 01:13:17;;;;;;;39.13;24.13;;;;;;;;;;5140091;27;20525;-71
2021/03/26 01:15:48;;;;;;;43.17;24.60;;;;;;;;;;5139514;27;20489;-72
2021/03/26 01:18:20;;;;;;;38.97;23.07;;;;;;;;;;5139499;27;20480;-71
2021/03/26 01:20:49;;;;;;;45.40;24.87;;;;;;;;;;5139487;27;20474;-73
2021/03/26 01:23:16;;;;;;;37.00;23.10;;;;;;;;;;5139544;27;20861;-71
2021/03/26 01:25:44;;;;;;;35.23;22.87;;;;;;;;;;5139143;27;20566;-71
2021/03/26 01:28:15;;;;;;;43.80;22.03;;;;;;;;;;5139720;27;20449;-71
2021/03/26 01:30:43;;;;;;;35.63;23.07;;;;;;;;;;5139366;27;20461;-71
2021/03/26 01:33:20;;;;;;;46.80;22.70;;;;;;;;;;5139580;27;20445;-71
2021/03/26 01:35:49;;;;;;;42.53;23.57;;;;;;;;;;5140095;27;20502;-71
2021/03/26 01:38:17;;;;;;;38.60;22.00;;;;;;;;;;5133887;27;20437;-71
2021/03/26 01:40:49;;;;;;;40.43;23.40;;;;;;;;;;5117487;27;20456;-71
2021/03/26 01:43:19;;;;;;;37.93;23.20;;;;;;;;;;5119251;27;20454;-72
2021/03/26 01:45:48;;;;;;;44.27;23.33;;;;;;;;;;5119790;27;20468;-72
2021/03/26 01:48:23;;;;;;;38.67;23.67;;;;;;;;;;5120269;27;20461;-72
2021/03/26 01:50:58;;;;;;;39.30;24.13;;;;;;;;;;5119703;27;20848;-72
2021/03/26 01:53:28;;;;;;;38.93;22.87;;;;;;;;;;5120497;27;20731;-72
2021/03/26 01:55:58;;;;;;;42.50;25.30;;;;;;;;;;5119502;27;20821;-73
2021/03/26 01:58:30;;;;;;;47.53;26.27;;;;;;;;;;5118533;27;20789;-72
2021/03/26 02:00:59;;;;;;;40.20;23.73;;;;;;;;;;5118972;27;20464;-72
2021/03/26 02:03:28;;;;;;;39.93;23.93;;;;;;;;;;5118509;27;20445;-71
2021/03/26 02:05:58;;;;;;;42.77;26.47;;;;;;;;;;5118494;27;20521;-72
2021/03/26 02:08:28;;;;;;;43.57;23.70;;;;;;;;;;5118516;27;20454;-72
2021/03/26 02:11:00;;;;;;;38.70;21.33;;;;;;;;;;5118740;27;20451;-72
2021/03/26 02:13:52;;;;;;;45.50;26.63;;;;;;;;;;5119313;27;20733;-72
2021/03/26 02:16:21;;;;;;;43.60;24.47;;;;;;;;;;5118701;27;20902;-72
2021/03/26 02:18:48;;;;;;;45.20;23.40;;;;;;;;;;5117949;27;20452;-72
2021/03/26 02:21:19;;;;;;;43.17;24.20;;;;;;;;;;5118418;27;20494;-72
2021/03/26 02:23:47;;;;;;;43.67;24.17;;;;;;;;;;5117246;27;20810;-72
2021/03/26 02:26:17;;;;;;;42.90;25.10;;;;;;;;;;5118357;27;20515;-72
2021/03/26 02:28:47;;;;;;;42.70;24.97;;;;;;;;;;5117920;27;20449;-72
2021/03/26 02:31:22;;;;;;;44.77;24.00;;;;;;;;;;5117838;27;20463;-71
2021/03/26 02:33:49;;;;;;;49.57;26.07;;;;;;;;;;5118586;27;20475;-71
2021/03/26 02:36:35;;;;;;;40.57;24.70;;;;;;;;;;5118072;27;20492;-71
2021/03/26 02:39:06;;;;;;;50.47;26.03;;;;;;;;;;5115965;27;20442;-72
2021/03/26 02:41:34;;;;;;;50.00;26.03;;;;;;;;;;5118797;27;20461;-71
2021/03/26 02:44:10;;;;;;;44.20;25.10;;;;;;;;;;5117591;27;20436;-71
2021/03/26 02:46:42;;;;;;;43.80;25.77;;;;;;;;;;5117510;27;20453;-72
2021/03/26 02:49:29;;;;;;;45.33;24.07;;;;;;;;;;5117347;27;20463;-72
2021/03/26 02:52:01;;;;;;;47.50;27.10;;;;;;;;;;5115193;27;20815;-72
2021/03/26 02:54:33;;;;;;;45.47;25.20;;;;;;;;;;5123823;27;20488;-72
2021/03/26 02:57:05;;;;;;;45.90;25.60;;;;;;;;;;5137702;27;20512;-72
2021/03/26 02:59:34;;;;;;;45.70;25.90;;;;;;;;;;5119457;27;20855;-72
2021/03/26 03:02:01;;;;;;;51.00;24.90;;;;;;;;;;5117795;27;20457;-72
2021/03/26 03:04:32;;;;;;;46.80;25.57;;;;;;;;;;5116333;27;20537;-72
2021/03/26 03:07:01;;;;;;;45.80;25.63;;;;;;;;;;5134693;27;20865;-72
2021/03/26 03:09:29;;;;;;;43.50;25.67;;;;;;;;;;5137431;27;20510;-72
2021/03/26 03:11:59;;;;;;;44.80;25.00;;;;;;;;;;5138137;27;20458;-72
2021/03/26 03:14:29;;;;;;;44.00;24.93;;;;;;;;;;5138578;27;21133;-72
2021/03/26 03:16:59;;;;;;;40.97;23.70;;;;;;;;;;5137261;27;20537;-72
2021/03/26 03:19:30;;;;;;;49.43;25.37;;;;;;;;;;5119544;27;20452;-71
2021/03/26 03:22:00;;;;;;;49.10;25.37;;;;;;;;;;5118082;27;20460;-71
2021/03/26 03:24:31;;;;;;;50.27;24.90;;;;;;;;;;5118293;27;20789;-71
2021/03/26 03:27:06;;;;;;;43.80;25.50;;;;;;;;;;5117739;27;20450;-71
2021/03/26 03:29:36;;;;;;;40.20;24.30;;;;;;;;;;5118276;27;20459;-71
2021/03/26 03:32:07;;;;;;;44.17;24.33;;;;;;;;;;5117569;27;20513;-71
2021/03/26 03:34:37;;;;;;;42.17;23.50;;;;;;;;;;5119233;27;21058;-71
2021/03/26 03:37:09;;;;;;;48.50;26.40;;;;;;;;;;5117885;27;20451;-71
2021/03/26 03:39:40;;;;;;;42.93;24.73;;;;;;;;;;5118775;27;20747;-71
2021/03/26 03:42:10;;;;;;;49.27;26.80;;;;;;;;;;5118089;27;20682;-71
2021/03/26 03:44:39;;;;;;;43.67;23.17;;;;;;;;;;5117028;27;20460;-71
2021/03/26 03:47:08;;;;;;;44.50;23.97;;;;;;;;;;5123284;27;20460;-71
2021/03/26 03:49:39;;;;;;;44.20;23.77;;;;;;;;;;5137274;27;20456;-71
2021/03/26 03:52:09;;;;;;;41.00;23.67;;;;;;;;;;5132471;27;20712;-71
2021/03/26 03:54:37;;;;;;;38.93;23.30;;;;;;;;;;5117339;27;20555;-72
2021/03/26 03:57:06;;;;;;;39.50;22.67;;;;;;;;;;5117685;27;20451;-72
2021/03/26 03:59:38;;;;;;;39.87;21.37;;;;;;;;;;5116622;27;20453;-72
2021/03/26 04:02:06;;;;;;;39.70;22.60;;;;;;;;;;5118063;27;20812;-72
2021/03/26 04:04:37;;;;;;;42.10;22.53;;;;;;;;;;5117716;27;20493;-72
2021/03/26 04:07:06;;;;;;;38.00;21.60;;;;;;;;;;5117492;27;20529;-71
2021/03/26 04:09:38;;;;;;;43.20;25.60;;;;;;;;;;5117038;27;20449;-71
2021/03/26 04:12:08;;;;;;;39.17;22.47;;;;;;;;;;5116955;27;20875;-71
2021/03/26 04:14:39;;;;;;;37.97;23.93;;;;;;;;;;5135249;27;20488;-71
2021/03/26 04:17:10;;;;;;;43.77;24.37;;;;;;;;;;5126167;27;20463;-71
2021/03/26 04:19:39;;;;;;;38.70;23.50;;;;;;;;;;5120733;27;20698;-73
2021/03/26 04:22:09;;;;;;;40.77;23.00;;;;;;;;;;5121141;27;20454;-72
2021/03/26 04:24:38;;;;;;;45.77;22.60;;;;;;;;;;5121805;27;20520;-72
2021/03/26 04:27:08;;;;;;;43.43;24.37;;;;;;;;;;5120133;27;20455;-72
2021/03/26 04:29:42;;;;;;;44.30;24.40;;;;;;;;;;5120465;27;20528;-72
2021/03/26 04:32:11;;;;;;;38.43;22.63;;;;;;;;;;5120365;27;20505;-72
2021/03/26 04:34:38;;;;;;;46.53;25.90;;;;;;;;;;5120632;27;20495;-72
2021/03/26 04:37:10;;;;;;;46.60;23.60;;;;;;;;;;5120094;27;20477;-72
2021/03/26 04:39:38;;;;;;;42.00;22.90;;;;;;;;;;5120239;27;20480;-72
2021/03/26 04:42:08;;;;;;;44.37;23.87;;;;;;;;;;5103164;27;20798;-72
2021/03/26 04:44:41;;;;;;;40.00;23.77;;;;;;;;;;5100121;27;20457;-72
2021/03/26 04:47:14;;;;;;;39.13;23.30;;;;;;;;;;5100960;27;20464;-72
2021/03/26 04:49:44;;;;;;;41.17;22.43;;;;;;;;;;5100375;27;20842;-72
2021/03/26 04:52:14;;;;;;;44.00;23.17;;;;;;;;;;5099590;27;20459;-72
2021/03/26 04:54:44;;;;;;;38.13;23.10;;;;;;;;;;5119488;27;20475;-72
2021/03/26 04:57:15;;;;;;;38.93;21.53;;;;;;;;;;5120025;27;20459;-73
2021/03/26 04:59:46;;;;;;;44.57;22.83;;;;;;;;;;5119778;27;20451;-73
2021/03/26 05:02:16;;;;;;;42.20;23.73;;;;;;;;;;5120144;27;20471;-73
2021/03/26 05:04:45;;;;;;;41.73;22.27;;;;;;;;;;5119533;27;20741;-72
2021/03/26 05:07:17;;;;;;;45.43;24.17;;;;;;;;;;5118576;27;20457;-72
2021/03/26 05:09:46;;;;;;;44.97;23.10;;;;;;;;;;5120792;27;20479;-72
2021/03/26 05:12:15;;;;;;;48.80;24.80;;;;;;;;;;5121031;27;20473;-72
2021/03/26 05:14:46;;;;;;;41.20;24.50;;;;;;;;;;5120505;27;20984;-72
2021/03/26 05:17:17;;;;;;;46.43;24.07;;;;;;;;;;5120266;27;20524;-72
2021/03/26 05:19:45;;;;;;;47.17;25.27;;;;;;;;;;5119060;27;20507;-71
2021/03/26 05:22:20;;;;;;;44.57;23.97;;;;;;;;;;5118997;27;20488;-72
2021/03/26 05:24:50;;;;;;;48.27;25.60;;;;;;;;;;5119944;27;20508;-72
2021/03/26 05:27:17;;;;;;;51.73;26.17;;;;;;;;;;5118325;27;20868;-72
2021/03/26 05:29:45;;;;;;;47.40;25.03;;;;;;;;;;5120255;27;20452;-72
2021/03/26 05:32:14;;;;;;;54.90;28.03;;;;;;;;;;5121362;27;20531;-72
2021/03/26 05:34:48;;;;;;;53.67;27.13;;;;;;;;;;5118548;27;20481;-72
2021/03/26 05:37:17;;;;;;;47.90;24.80;;;;;;;;;;5123597;27;20907;-72
2021/03/26 05:39:47;;;;;;;43.20;24.57;;;;;;;;;;5139283;27;21018;-73
2021/03/26 05:42:41;;;;;;;50.60;26.50;;;;;;;;;;5139263;27;20451;-72
2021/03/26 05:45:29;;;;;;;43.63;25.27;;;;;;;;;;5138462;27;20456;-72
2021/03/26 05:48:14;;;;;;;51.67;26.60;;;;;;;;;;5130424;27;20527;-72
2021/03/26 05:50:57;;;;;;;43.70;23.90;;;;;;;;;;5138124;27;20448;-72
2021/03/26 05:53:29;;;;;;;56.37;25.73;;;;;;;;;;5138701;27;20463;-72
2021/03/26 05:55:59;;;;;;;49.23;25.67;;;;;;;;;;5138308;27;20482;-72
2021/03/26 05:58:34;;;;;;;46.93;25.73;;;;;;;;;;5138411;27;20764;-72
2021/03/26 06:01:10;;;;;;;47.57;26.70;;;;;;;;;;5136901;27;20449;-72
2021/03/26 06:03:55;;;;;;;59.07;26.90;;;;;;;;;;5138324;27;20455;-72
2021/03/26 06:06:40;;;;;;;50.70;26.00;;;;;;;;;;5137658;27;20454;-72
2021/03/26 06:09:16;;;;;;;49.57;27.57;;;;;;;;;;5137560;27;20462;-72
2021/03/26 06:12:04;;;;;;;49.37;26.97;;;;;;;;;;5139849;27;20457;-72
2021/03/26 06:14:46;;;;;;;52.27;26.73;;;;;;;;;;5095620;28;20478;-72
2021/03/26 06:17:17;;;;;;;50.40;28.50;;;;;;;;;;5138274;27;20450;-72
2021/03/26 06:20:03;;;;;;;51.00;26.80;;;;;;;;;;5130872;27;20447;-72
2021/03/26 06:23:14;;;;;;;47.17;27.67;;;;;;;;;;5104247;27;20460;-71
2021/03/26 06:28:52;;;;;;;48.17;25.97;;;;;;;;;;5086283;27;20474;-72
2021/03/26 06:31:40;;;;;;;50.20;27.23;;;;;;;;;;5098618;27;20444;-72
2021/03/26 06:34:23;;;;;;;59.90;29.87;;;;;;;;;;5075341;27;20877;-72
2021/03/26 06:37:07;;;;;;;46.47;26.67;;;;;;;;;;5117672;27;20496;-71
2021/03/26 06:39:41;;;;;;;53.97;28.60;;;;;;;;;;5118480;27;20871;-71
2021/03/26 06:42:15;;;;;;;48.50;27.60;;;;;;;;;;5116647;27;20451;-71
2021/03/26 06:44:59;;;;;;;48.07;26.60;;;;;;;;;;5122584;27;20458;-72
2021/03/26 06:47:36;;;;;;;54.77;29.67;;;;;;;;;;5113733;27;20466;-72
2021/03/26 06:50:09;;;;;;;53.37;28.07;;;;;;;;;;5118019;27;20535;-72
2021/03/26 06:53:07;;;;;;;56.90;28.60;;;;;;;;;;5118237;27;20498;-72
2021/03/26 06:56:15;;;;;;;52.87;27.50;;;;;;;;;;5113816;27;20950;-72
2021/03/26 06:58:58;;;;;;;51.47;27.13;;;;;;;;;;5097196;27;21113;-72
2021/03/26 07:01:35;;;;;;;50.97;28.93;;;;;;;;;;5101948;27;20452;-71
2021/03/26 07:04:26;;;;;;;54.00;28.00;;;;;;;;;;5120701;27;20867;-72
2021/03/26 07:07:16;;;;;;;61.10;29.60;;;;;;;;;;5043859;28;20482;-72
2021/03/26 07:10:08;;;;;;;50.40;28.07;;;;;;;;;;5052327;28;20443;-72
2021/03/26 07:12:55;;;;;;;44.33;27.47;;;;;;;;;;5116926;27;20533;-72
2021/03/26 07:15:29;;;;;;;51.67;29.33;;;;;;;;;;5111368;27;21110;-72
2021/03/26 07:18:35;;;;;;;57.73;29.33;;;;;;;;;;5117644;27;20465;-72
2021/03/26 07:21:10;;;;;;;48.10;27.20;;;;;;;;;;5115456;27;20464;-71
2021/03/26 07:24:07;;;;;;;47.07;27.10;;;;;;;;;;5115082;27;20559;-72
2021/03/26 07:26:44;;;;;;;53.60;27.63;;;;;;;;;;5009787;28;21069;-71
2021/03/26 07:29:33;;;;;;;49.37;27.80;;;;;;;;;;5097672;27;20458;-71
2021/03/26 07:32:15;;;;;;;45.80;29.20;;;;;;;;;;5110265;27;20487;-71
2021/03/26 07:34:48;;;;;;;47.87;28.10;;;;;;;;;;5093658;27;20552;-72
2021/03/26 07:37:32;;;;;;;45.47;27.07;;;;;;;;;;5108086;27;21023;-72
2021/03/26 07:40:05;;;;;;;48.70;28.03;;;;;;;;;;5115517;27;20447;-71
2021/03/26 07:43:03;;;;;;;53.43;29.17;;;;;;;;;;5116894;27;20870;-72
2021/03/26 07:45:50;;;;;;;46.90;26.43;;;;;;;;;;5114596;27;20870;-71
2021/03/26 07:48:28;;;;;;;41.40;26.53;;;;;;;;;;5110438;27;20458;-71
2021/03/26 07:51:00;;;;;;;43.10;25.77;;;;;;;;;;5111732;27;20472;-72
2021/03/26 07:53:47;;;;;;;42.60;24.70;;;;;;;;;;5096214;27;20567;-72
2021/03/26 07:56:27;;;;;;;50.50;28.97;;;;;;;;;;5115885;27;20474;-71
2021/03/26 07:59:36;;;;;;;44.43;28.90;;;;;;;;;;5133375;27;20528;-72
2021/03/26 08:02:09;;;;;;;46.50;28.47;;;;;;;;;;5117493;27;20454;-71
2021/03/26 08:04:38;;;;;;;44.07;25.87;;;;;;;;;;5126942;27;20497;-71
2021/03/26 08:07:20;;;;;;;42.67;25.30;;;;;;;;;;5135777;27;20459;-72
2021/03/26 08:10:05;;;;;;;50.67;28.90;;;;;;;;;;5132232;27;20466;-71
2021/03/26 08:12:38;;;;;;;38.43;26.73;;;;;;;;;;5115676;27;20482;-71
2021/03/26 08:15:27;;;;;;;43.57;25.97;;;;;;;;;;5113223;27;20510;-71
2021/03/26 08:18:00;;;;;;;47.73;28.93;;;;;;;;;;5116060;27;20439;-71
2021/03/26 08:20:30;;;;;;;38.57;25.57;;;;;;;;;;5098897;27;20455;-71
2021/03/26 08:23:24;;;;;;;38.80;26.83;;;;;;;;;;5096599;27;20443;-71
2021/03/26 08:25:56;;;;;;;39.47;24.60;;;;;;;;;;5066050;27;20467;-71
2021/03/26 08:28:32;;;;;;;39.53;23.90;;;;;;;;;;5113918;27;20451;-71
2021/03/26 08:31:23;;;;;;;35.07;23.30;;;;;;;;;;5116099;27;20567;-71
2021/03/26 08:34:07;;;;;;;37.23;23.67;;;;;;;;;;5040627;28;20461;-71
2021/03/26 08:36:36;;;;;;;33.90;21.50;;;;;;;;;;5126641;27;20907;-71
2021/03/26 08:39:25;;;;;;;39.03;22.87;;;;;;;;;;5101343;27;20932;-70
2021/03/26 08:42:00;;;;;;;32.57;19.13;;;;;;;;;;5107058;27;21005;-72
2021/03/26 08:44:29;;;;;;;26.83;18.87;;;;;;;;;;5115604;27;20439;-71
2021/03/26 08:46:57;;;;;;;35.40;22.73;;;;;;;;;;5116798;27;20826;-72
2021/03/26 08:49:31;;;;;;;29.27;20.37;;;;;;;;;;5130134;27;20463;-70
2021/03/26 08:52:13;;;;;;;28.43;20.50;;;;;;;;;;5107550;27;20508;-71
2021/03/26 08:54:48;;;;;;;30.40;20.23;;;;;;;;;;5112246;27;20536;-71
2021/03/26 08:57:20;;;;;;;33.93;20.93;;;;;;;;;;5134003;27;20747;-73
2021/03/26 09:00:00;;;;;;;36.70;22.30;;;;;;;;;;5117058;27;20455;-71
2021/03/26 09:02:44;;;;;;;37.23;20.77;;;;;;;;;;5117841;27;20881;-71
2021/03/26 09:05:18;;;;;;;28.30;19.20;;;;;;;;;;5132845;27;20457;-71
2021/03/26 09:08:02;;;;;;;34.13;20.70;;;;;;;;;;5139542;27;20455;-71
2021/03/26 09:10:45;;;;;;;29.57;19.73;;;;;;;;;;5113784;27;20449;-71
2021/03/26 09:13:24;;;;;;;28.87;19.23;;;;;;;;;;5098753;27;20995;-71
2021/03/26 09:16:03;;;;;;;25.53;17.87;;;;;;;;;;5102094;27;20526;-71
2021/03/26 09:18:39;;;;;;;23.53;17.20;;;;;;;;;;5098764;27;20524;-70
2021/03/26 09:21:10;;;;;;;29.33;17.40;;;;;;;;;;5111504;27;20543;-70
2021/03/26 09:23:44;;;;;;;24.80;17.10;;;;;;;;;;5120534;27;20441;-70
2021/03/26 09:26:33;;;;;;;20.70;15.50;;;;;;;;;;5113021;27;20950;-71
2021/03/26 09:29:07;;;;;;;20.00;13.83;;;;;;;;;;5117458;27;20852;-70
2021/03/26 09:31:39;;;;;;;22.97;14.90;;;;;;;;;;5109639;27;20456;-71
2021/03/26 09:34:15;;;;;;;23.10;14.33;;;;;;;;;;5104357;27;20464;-72
2021/03/26 09:36:49;;;;;;;20.13;15.00;;;;;;;;;;5113937;27;20497;-71
2021/03/26 09:39:22;;;;;;;20.20;13.50;;;;;;;;;;5103021;27;20600;-70
2021/03/26 09:41:53;;;;;;;18.70;12.33;;;;;;;;;;5109446;27;20610;-70
2021/03/26 09:44:26;;;;;;;21.10;13.60;;;;;;;;;;5116734;27;20439;-70
2021/03/26 09:47:00;;;;;;;17.03;12.57;;;;;;;;;;5100413;27;20471;-70
2021/03/26 09:49:29;;;;;;;17.67;12.00;;;;;;;;;;5097707;27;20856;-71
2021/03/26 09:51:59;;;;;;;20.20;11.17;;;;;;;;;;5111646;27;20452;-72
2021/03/26 09:54:29;;;;;;;21.27;11.57;;;;;;;;;;5122990;27;20445;-72
2021/03/26 09:57:19;;;;;;;20.60;14.20;;;;;;;;;;5118678;27;20466;-72
2021/03/26 09:59:52;;;;;;;19.67;13.50;;;;;;;;;;5113598;27;20889;-73
2021/03/26 10:02:28;;;;;;;19.37;13.07;;;;;;;;;;5116261;27;20453;-72
2021/03/26 10:05:04;;;;;;;19.20;12.37;;;;;;;;;;5113324;27;20813;-72
2021/03/26 10:07:42;;;;;;;18.07;12.33;;;;;;;;;;5127229;27;20885;-71
2021/03/26 10:13:21;;;;;;;19.03;10.50;;;;;;;;;;5089306;27;20528;-73
2021/03/26 10:15:56;;;;;;;17.50;10.40;;;;;;;;;;5108249;27;20479;-73
2021/03/26 10:18:28;;;;;;;16.60;10.40;;;;;;;;;;5120351;27;20451;-72
2021/03/26 10:21:05;;;;;;;16.50;12.10;;;;;;;;;;5119593;27;20502;-75
2021/03/26 10:23:36;;;;;;;18.30;11.80;;;;;;;;;;5115800;27;20475;-71
2021/03/26 10:26:08;;;;;;;10.33;6.73;;;;;;;;;;5119271;27;20446;-72
2021/03/26 10:28:56;;;;;;;13.47;9.60;;;;;;;;;;5101489;27;20467;-71
2021/03/26 10:31:30;;;;;;;19.00;11.20;;;;;;;;;;5097736;27;20456;-71
2021/03/26 10:33:59;;;;;;;18.20;11.70;;;;;;;;;;5096874;27;20870;-71
2021/03/26 10:36:38;;;;;;;16.93;10.70;;;;;;;;;;5105807;27;20566;-71
2021/03/26 10:39:17;;;;;;;16.97;13.03;;;;;;;;;;5116209;27;20729;-71
2021/03/26 10:42:16;;;;;;;16.63;11.50;;;;;;;;;;5117254;27;20447;-70
2021/03/26 10:45:02;;;;;;;19.80;13.23;;;;;;;;;;5117661;27;20451;-71
2021/03/26 10:47:36;;;;;;;21.03;14.20;;;;;;;;;;5117514;27;20449;-70
2021/03/26 10:50:15;;;;;;;17.27;13.13;;;;;;;;;;5117062;27;20475;-71
2021/03/26 10:52:44;;;;;;;17.83;12.53;;;;;;;;;;5118638;27;21037;-70
2021/03/26 10:55:22;;;;;;;14.77;12.23;;;;;;;;;;5117125;27;20752;-70
2021/03/26 10:57:56;;;;;;;16.97;12.47;;;;;;;;;;5117750;27;20443;-70
2021/03/26 11:00:28;;;;;;;20.83;14.43;;;;;;;;;;5116802;27;20455;-71
2021/03/26 11:03:13;;;;;;;18.83;13.47;;;;;;;;;;5119393;27;20454;-72
2021/03/26 11:12:13;;;;;;;18.67;13.10;;;;;;;;;;5116117;27;20438;-71
2021/03/26 11:14:44;;;;;;;21.20;14.60;;;;;;;;;;5111657;27;20455;-71
2021/03/26 11:17:32;;;;;;;40.37;16.90;;;;;;;;;;5095292;28;20471;-70
2021/03/26 11:20:09;;;;;;;20.00;13.53;;;;;;;;;;5062960;28;20574;-72
2021/03/26 11:22:40;;;;;;;15.93;11.00;;;;;;;;;;5094697;28;20471;-72
2021/03/26 11:25:17;;;;;;;20.63;13.43;;;;;;;;;;5104085;27;20467;-71
2021/03/26 11:27:56;;;;;;;19.77;12.60;;;;;;;;;;5096487;28;20551;-70
2021/03/26 11:30:33;;;;;;;18.83;12.30;;;;;;;;;;5106441;28;20465;-71
2021/03/26 11:33:13;;;;;;;18.50;12.27;;;;;;;;;;5116641;27;20450;-72
2021/03/26 11:35:51;;;;;;;17.80;12.30;;;;;;;;;;5117074;27;20585;-70
2021/03/26 11:38:23;;;;;;;16.33;10.13;;;;;;;;;;5114636;27;20454;-71
2021/03/26 11:40:57;;;;;;;22.93;12.30;;;;;;;;;;5130561;27;20508;-70
2021/03/26 11:43:28;;;;;;;18.50;12.40;;;;;;;;;;5137635;27;20461;-70
2021/03/26 11:46:03;;;;;;;17.53;13.30;;;;;;;;;;5131509;27;20580;-72
2021/03/26 11:48:53;;;;;;;17.03;12.37;;;;;;;;;;5097698;28;20475;-70
2021/03/26 11:51:28;;;;;;;17.47;12.37;;;;;;;;;;5066064;28;21075;-71
2021/03/26 11:54:09;;;;;;;17.30;11.90;;;;;;;;;;5095182;28;20458;-71
2021/03/26 11:56:49;;;;;;;16.27;11.90;;;;;;;;;;5094443;28;20531;-71
2021/03/26 11:59:36;;;;;;;15.70;11.10;;;;;;;;;;5100295;28;20852;-71
2021/03/26 12:02:16;;;;;;;15.10;11.83;;;;;;;;;;5094300;28;20499;-71
2021/03/26 12:04:46;;;;;;;19.33;12.53;;;;;;;;;;5095941;28;20455;-72
2021/03/26 12:07:19;;;;;;;15.50;12.03;;;;;;;;;;5093893;28;20459;-71
2021/03/26 12:09:49;;;;;;;19.17;12.33;;;;;;;;;;5095452;28;20867;-71
2021/03/26 12:12:20;;;;;;;19.00;13.43;;;;;;;;;;5094246;28;20466;-72
2021/03/26 12:21:28;;;;;;;17.20;12.33;;;;;;;;;;4981433;27;2819903;-73
2021/03/26 12:24:17;;;;;;;17.83;13.80;;;;;;;;;;5101532;28;20510;-71
2021/03/26 12:27:08;;;;;;;18.07;13.17;;;;;;;;;;5082319;28;20957;-72
2021/03/26 12:30:03;;;;;;;17.50;13.73;;;;;;;;;;5079567;28;20445;-73
2021/03/26 12:33:15;;;;;;;15.03;11.20;;;;;;;;;;5085186;28;20517;-73
2021/03/26 12:39:05;;;;;;;17.70;12.67;;;;;;;;;;5079231;28;20411;-72
2021/03/26 12:41:38;;;;;;;23.27;13.10;;;;;;;;;;5078552;28;20510;-72
2021/03/26 12:44:10;;;;;;;16.77;12.43;;;;;;;;;;5078843;28;21101;-71
2021/03/26 12:46:56;;;;;;;20.73;13.90;;;;;;;;;;5078572;28;20445;-72
2021/03/26 12:49:30;;;;;;;19.00;13.70;;;;;;;;;;5070071;28;20460;-71
2021/03/26 12:52:04;;;;;;;20.43;12.17;;;;;;;;;;5078255;28;20789;-71
2021/03/26 12:54:37;;;;;;;17.60;13.03;;;;;;;;;;5078468;28;20723;-71
2021/03/26 12:57:28;;;;;;;15.20;11.43;;;;;;;;;;5085498;28;20529;-71
2021/03/26 13:00:55;;;;;;;18.43;12.37;;;;;;;;;;5084132;28;20479;-70
2021/03/26 13:03:33;;;;;;;20.27;13.00;;;;;;;;;;5083493;28;20944;-73
2021/03/26 13:06:10;;;;;;;15.13;10.90;;;;;;;;;;5082541;28;20476;-72
2021/03/26 13:08:47;;;;;;;15.33;11.63;;;;;;;;;;5089093;28;20461;-71
2021/03/26 13:11:21;;;;;;;16.57;11.50;;;;;;;;;;5086306;28;21098;-72
2021/03/26 13:13:58;;;;;;;18.90;11.10;;;;;;;;;;5098648;28;20546;-72
2021/03/26 13:16:49;;;;;;;14.57;10.77;;;;;;;;;;5078874;28;20495;-71
2021/03/26 13:19:26;;;;;;;15.47;11.63;;;;;;;;;;5062766;28;20473;-72
2021/03/26 13:22:07;;;;;;;19.20;10.60;;;;;;;;;;5077833;28;20460;-71
2021/03/26 13:24:40;;;;;;;14.87;10.37;;;;;;;;;;5077659;28;20518;-71
2021/03/26 13:27:21;;;;;;;14.70;10.70;;;;;;;;;;5077691;28;20731;-71
2021/03/26 13:29:53;;;;;;;17.23;11.00;;;;;;;;;;5079299;28;20445;-71
2021/03/26 13:32:26;;;;;;;14.03;10.20;;;;;;;;;;5091794;28;20728;-72
2021/03/26 13:34:56;;;;;;;14.93;10.23;;;;;;;;;;5077741;28;20441;-72
2021/03/26 13:37:28;;;;;;;14.10;10.27;;;;;;;;;;5081035;28;20904;-74
2021/03/26 13:40:07;;;;;;;15.80;10.73;;;;;;;;;;5083962;28;20563;-72
2021/03/26 13:42:42;;;;;;;12.90;9.50;;;;;;;;;;5092243;28;20452;-73
2021/03/26 13:45:11;;;;;;;17.40;10.90;;;;;;;;;;5098874;28;20431;-72
2021/03/26 13:47:47;;;;;;;12.03;9.20;;;;;;;;;;5098408;28;20703;-71
2021/03/26 13:50:23;;;;;;;18.73;11.87;;;;;;;;;;5085192;28;20444;-71
2021/03/26 13:53:01;;;;;;;17.23;10.97;;;;;;;;;;5085266;28;20484;-72
2021/03/26 13:55:31;;;;;;;15.20;9.90;;;;;;;;;;5079818;28;20512;-72
2021/03/26 13:58:06;;;;;;;14.87;10.37;;;;;;;;;;5086138;28;20489;-71
2021/03/26 14:00:33;;;;;;;12.97;10.43;;;;;;;;;;5079293;28;20448;-71
2021/03/26 14:03:02;;;;;;;13.67;10.03;;;;;;;;;;5080036;28;20476;-71
2021/03/26 14:05:41;;;;;;;11.70;8.53;;;;;;;;;;5077071;28;20461;-71
2021/03/26 14:08:13;;;;;;;13.90;9.77;;;;;;;;;;5093996;28;20474;-72
2021/03/26 14:10:53;;;;;;;13.67;9.57;;;;;;;;;;5095781;28;21086;-72
2021/03/26 14:13:22;;;;;;;13.37;9.73;;;;;;;;;;5096769;28;20448;-72
2021/03/26 14:15:59;;;;;;;14.73;11.90;;;;;;;;;;5096891;28;20531;-72
2021/03/26 14:18:29;;;;;;;14.37;9.10;;;;;;;;;;5096825;28;20770;-72
2021/03/26 14:21:16;;;;;;;13.67;9.73;;;;;;;;;;5077597;28;20472;-72
2021/03/26 14:23:44;;;;;;;12.90;8.17;;;;;;;;;;5093997;28;20448;-72
2021/03/26 14:26:14;;;;;;;12.47;8.90;;;;;;;;;;5095853;28;20452;-72
2021/03/26 14:28:45;;;;;;;11.50;9.07;;;;;;;;;;5098093;28;20864;-73
2021/03/26 14:31:14;;;;;;;12.63;8.20;;;;;;;;;;5089730;28;20453;-73
2021/03/26 14:33:46;;;;;;;10.27;8.50;;;;;;;;;;5082194;28;21035;-70
2021/03/26 14:36:23;;;;;;;12.30;7.07;;;;;;;;;;5077244;28;20575;-70
2021/03/26 14:39:01;;;;;;;12.07;7.27;;;;;;;;;;5076939;28;20524;-71
2021/03/26 14:41:32;;;;;;;11.30;7.97;;;;;;;;;;5078736;28;20490;-72
2021/03/26 14:44:05;;;;;;;11.53;8.13;;;;;;;;;;5087243;28;20527;-71
2021/03/26 14:46:45;;;;;;;14.80;8.70;;;;;;;;;;5092278;28;20453;-71
2021/03/26 14:49:20;;;;;;;13.97;8.50;;;;;;;;;;5089691;28;20548;-72
2021/03/26 14:51:58;;;;;;;9.20;6.97;;;;;;;;;;5083988;28;20459;-72
2021/03/26 14:57:21;;;;;;;11.70;7.20;;;;;;;;;;5075211;28;20481;-71
2021/03/26 15:00:11;;;;;;;10.33;7.13;;;;;;;;;;5083718;28;20452;-71
2021/03/26 15:02:44;;;;;;;12.13;7.20;;;;;;;;;;5086885;28;20457;-71
2021/03/26 15:05:15;;;;;;;13.70;8.53;;;;;;;;;;5085838;28;20520;-72
2021/03/26 15:07:48;;;;;;;14.07;8.70;;;;;;;;;;5075580;28;20552;-71
2021/03/26 15:10:32;;;;;;;12.60;8.30;;;;;;;;;;5075075;28;20457;-71
2021/03/26 15:13:36;;;;;;;11.10;7.97;;;;;;;;;;5075865;28;20463;-71
2021/03/26 15:16:06;;;;;;;11.80;7.97;;;;;;;;;;5081196;28;20595;-71
2021/03/26 15:18:49;;;;;;;11.93;6.83;;;;;;;;;;5074562;28;20522;-71
2021/03/26 15:21:24;;;;;;;11.33;7.40;;;;;;;;;;5055973;28;20460;-71
2021/03/26 15:24:06;;;;;;;8.77;6.43;;;;;;;;;;5072484;28;20608;-72
2021/03/26 15:26:37;;;;;;;8.53;6.80;;;;;;;;;;5069547;28;20449;-71
2021/03/26 15:32:05;;;;;;;10.47;6.87;;;;;;;;;;5072559;28;20788;-72
2021/03/26 15:34:43;;;;;;;10.97;6.20;;;;;;;;;;5075316;28;20464;-72
2021/03/26 15:37:23;;;;;;;11.40;7.57;;;;;;;;;;5066967;28;20487;-72